sensor_id;sensor_type;location;lat;lon;timestamp;P1;durP1;ratioP1;P2;durP2;ratioP2
64832;SDS011;51290;45.060;38.948;2024-03-02T00:00:07;25.67;;;17.70;;
64832;SDS011;51290;45.060;38.948;2024-03-02T00:02:42;25.08;;;18.88;;
64832;SDS011;51290;45.060;38.948;2024-03-02T00:05:13;26.70;;;19.95;;
64832;SDS011;51290;45.060;38.948;2024-03-02T00:08:14;26.88;;;17.23;;
64832;SDS011;51290;45.060;38.948;2024-03-02T00:10:39;23.05;;;16.58;;
64832;SDS011;51290;45.060;38.948;2024-03-02T00:13:08;29.65;;;18.88;;
64832;SDS011;51290;45.060;38.948;2024-03-02T00:18:11;28.02;;;17.65;;
64832;SDS011;51290;45.060;38.948;2024-03-02T00:20:38;25.92;;;17.40;;
64832;SDS011;51290;45.060;38.948;2024-03-02T00:23:06;21.27;;;15.35;;
64832;SDS011;51290;45.060;38.948;2024-03-02T00:25:37;23.80;;;15.68;;
64832;SDS011;51290;45.060;38.948;2024-03-02T00:28:16;24.27;;;16.75;;
64832;SDS011;51290;45.060;38.948;2024-03-02T00:33:36;25.40;;;17.52;;
64832;SDS011;51290;45.060;38.948;2024-03-02T00:36:06;22.60;;;16.17;;
64832;SDS011;51290;45.060;38.948;2024-03-02T00:38:34;20.33;;;15.27;;
64832;SDS011;51290;45.060;38.948;2024-03-02T00:41:04;23.00;;;16.77;;
64832;SDS011;51290;45.060;38.948;2024-03-02T00:43:42;29.70;;;18.35;;
64832;SDS011;51290;45.060;38.948;2024-03-02T00:46:11;22.38;;;16.38;;
64832;SDS011;51290;45.060;38.948;2024-03-02T00:48:39;24.02;;;18.23;;
64832;SDS011;51290;45.060;38.948;2024-03-02T00:51:12;24.23;;;16.92;;
64832;SDS011;51290;45.060;38.948;2024-03-02T00:53:38;23.45;;;17.17;;
64832;SDS011;51290;45.060;38.948;2024-03-02T00:56:04;24.02;;;17.33;;
64832;SDS011;51290;45.060;38.948;2024-03-02T00:58:36;24.55;;;17.45;;
64832;SDS011;51290;45.060;38.948;2024-03-02T01:01:02;29.90;;;20.00;;
64832;SDS011;51290;45.060;38.948;2024-03-02T01:03:28;26.50;;;19.45;;
64832;SDS011;51290;45.060;38.948;2024-03-02T01:05:54;25.35;;;19.48;;
64832;SDS011;51290;45.060;38.948;2024-03-02T01:08:20;26.38;;;18.75;;
64832;SDS011;51290;45.060;38.948;2024-03-02T01:10:46;23.13;;;17.88;;
64832;SDS011;51290;45.060;38.948;2024-03-02T01:13:18;22.48;;;16.23;;
64832;SDS011;51290;45.060;38.948;2024-03-02T01:15:45;28.77;;;20.23;;
64832;SDS011;51290;45.060;38.948;2024-03-02T01:18:11;31.38;;;21.65;;
64832;SDS011;51290;45.060;38.948;2024-03-02T01:20:37;26.17;;;19.55;;
64832;SDS011;51290;45.060;38.948;2024-03-02T01:23:03;25.38;;;19.27;;
64832;SDS011;51290;45.060;38.948;2024-03-02T01:25:29;25.15;;;19.67;;
64832;SDS011;51290;45.060;38.948;2024-03-02T01:27:55;26.17;;;17.20;;
64832;SDS011;51290;45.060;38.948;2024-03-02T01:30:21;23.35;;;17.02;;
64832;SDS011;51290;45.060;38.948;2024-03-02T01:32:47;27.95;;;17.42;;
64832;SDS011;51290;45.060;38.948;2024-03-02T01:35:13;23.27;;;18.38;;
64832;SDS011;51290;45.060;38.948;2024-03-02T01:37:40;23.88;;;18.13;;
64832;SDS011;51290;45.060;38.948;2024-03-02T01:40:07;26.77;;;18.42;;
64832;SDS011;51290;45.060;38.948;2024-03-02T01:42:37;31.42;;;18.85;;
64832;SDS011;51290;45.060;38.948;2024-03-02T01:45:05;25.45;;;18.23;;
64832;SDS011;51290;45.060;38.948;2024-03-02T01:47:37;31.38;;;20.23;;
64832;SDS011;51290;45.060;38.948;2024-03-02T01:50:03;27.65;;;18.83;;
64832;SDS011;51290;45.060;38.948;2024-03-02T01:52:29;28.15;;;20.02;;
64832;SDS011;51290;45.060;38.948;2024-03-02T01:54:55;23.88;;;19.40;;
64832;SDS011;51290;45.060;38.948;2024-03-02T01:57:21;23.33;;;18.70;;
64832;SDS011;51290;45.060;38.948;2024-03-02T01:59:47;24.65;;;15.05;;
64832;SDS011;51290;45.060;38.948;2024-03-02T02:02:14;28.98;;;19.65;;
64832;SDS011;51290;45.060;38.948;2024-03-02T02:04:40;24.05;;;18.00;;
64832;SDS011;51290;45.060;38.948;2024-03-02T02:07:06;28.77;;;20.02;;
64832;SDS011;51290;45.060;38.948;2024-03-02T02:09:32;18.60;;;13.98;;
64832;SDS011;51290;45.060;38.948;2024-03-02T02:11:58;29.02;;;20.50;;
64832;SDS011;51290;45.060;38.948;2024-03-02T02:14:24;31.23;;;19.02;;
64832;SDS011;51290;45.060;38.948;2024-03-02T02:16:51;26.13;;;19.15;;
64832;SDS011;51290;45.060;38.948;2024-03-02T02:19:17;36.53;;;19.80;;
64832;SDS011;51290;45.060;38.948;2024-03-02T02:21:43;26.30;;;19.95;;
64832;SDS011;51290;45.060;38.948;2024-03-02T02:24:09;32.28;;;21.25;;
64832;SDS011;51290;45.060;38.948;2024-03-02T02:26:36;28.45;;;21.73;;
64832;SDS011;51290;45.060;38.948;2024-03-02T02:29:02;26.27;;;19.00;;
64832;SDS011;51290;45.060;38.948;2024-03-02T02:31:36;28.40;;;19.65;;
64832;SDS011;51290;45.060;38.948;2024-03-02T02:34:03;23.30;;;17.95;;
64832;SDS011;51290;45.060;38.948;2024-03-02T02:36:29;27.38;;;18.02;;
64832;SDS011;51290;45.060;38.948;2024-03-02T02:38:55;29.10;;;18.98;;
64832;SDS011;51290;45.060;38.948;2024-03-02T02:41:21;25.50;;;18.38;;
64832;SDS011;51290;45.060;38.948;2024-03-02T02:43:47;22.42;;;17.55;;
64832;SDS011;51290;45.060;38.948;2024-03-02T02:46:13;31.90;;;20.35;;
64832;SDS011;51290;45.060;38.948;2024-03-02T02:48:39;28.48;;;19.85;;
64832;SDS011;51290;45.060;38.948;2024-03-02T02:51:05;28.98;;;20.27;;
64832;SDS011;51290;45.060;38.948;2024-03-02T02:53:31;29.75;;;19.67;;
64832;SDS011;51290;45.060;38.948;2024-03-02T02:55:57;29.73;;;20.88;;
64832;SDS011;51290;45.060;38.948;2024-03-02T02:58:23;23.25;;;18.48;;
64832;SDS011;51290;45.060;38.948;2024-03-02T03:00:49;32.92;;;22.15;;
64832;SDS011;51290;45.060;38.948;2024-03-02T03:03:15;27.85;;;19.73;;
64832;SDS011;51290;45.060;38.948;2024-03-02T03:05:41;25.85;;;19.17;;
64832;SDS011;51290;45.060;38.948;2024-03-02T03:08:07;30.17;;;19.40;;
64832;SDS011;51290;45.060;38.948;2024-03-02T03:10:33;28.73;;;20.20;;
64832;SDS011;51290;45.060;38.948;2024-03-02T03:12:58;27.58;;;21.13;;
64832;SDS011;51290;45.060;38.948;2024-03-02T03:15:24;31.58;;;20.98;;
64832;SDS011;51290;45.060;38.948;2024-03-02T03:17:51;36.08;;;23.00;;
64832;SDS011;51290;45.060;38.948;2024-03-02T03:20:16;31.38;;;22.73;;
64832;SDS011;51290;45.060;38.948;2024-03-02T03:22:42;35.78;;;23.83;;
64832;SDS011;51290;45.060;38.948;2024-03-02T03:25:09;26.65;;;20.80;;
64832;SDS011;51290;45.060;38.948;2024-03-02T03:27:35;31.98;;;23.77;;
64832;SDS011;51290;45.060;38.948;2024-03-02T03:30:01;31.95;;;24.08;;
64832;SDS011;51290;45.060;38.948;2024-03-02T03:32:28;30.90;;;20.90;;
64832;SDS011;51290;45.060;38.948;2024-03-02T03:34:53;32.13;;;24.33;;
64832;SDS011;51290;45.060;38.948;2024-03-02T03:37:19;27.70;;;20.65;;
64832;SDS011;51290;45.060;38.948;2024-03-02T03:39:45;31.77;;;23.80;;
64832;SDS011;51290;45.060;38.948;2024-03-02T03:42:11;34.17;;;24.48;;
64832;SDS011;51290;45.060;38.948;2024-03-02T03:44:37;28.85;;;22.90;;
64832;SDS011;51290;45.060;38.948;2024-03-02T03:47:04;27.60;;;20.60;;
64832;SDS011;51290;45.060;38.948;2024-03-02T03:49:30;31.30;;;21.30;;
64832;SDS011;51290;45.060;38.948;2024-03-02T03:51:56;31.77;;;21.02;;
64832;SDS011;51290;45.060;38.948;2024-03-02T03:54:22;34.08;;;23.50;;
64832;SDS011;51290;45.060;38.948;2024-03-02T03:56:48;30.90;;;22.38;;
64832;SDS011;51290;45.060;38.948;2024-03-02T03:59:14;29.73;;;20.42;;
64832;SDS011;51290;45.060;38.948;2024-03-02T04:01:40;27.13;;;18.98;;
64832;SDS011;51290;45.060;38.948;2024-03-02T04:04:06;30.58;;;23.92;;
64832;SDS011;51290;45.060;38.948;2024-03-02T04:06:32;43.53;;;22.77;;
64832;SDS011;51290;45.060;38.948;2024-03-02T04:08:58;36.15;;;25.17;;
64832;SDS011;51290;45.060;38.948;2024-03-02T04:11:24;31.83;;;22.80;;
64832;SDS011;51290;45.060;38.948;2024-03-02T04:13:50;34.15;;;21.90;;
64832;SDS011;51290;45.060;38.948;2024-03-02T04:16:16;33.97;;;25.60;;
64832;SDS011;51290;45.060;38.948;2024-03-02T04:18:42;34.13;;;26.02;;
64832;SDS011;51290;45.060;38.948;2024-03-02T04:21:08;29.60;;;20.95;;
64832;SDS011;51290;45.060;38.948;2024-03-02T04:23:35;32.00;;;22.67;;
64832;SDS011;51290;45.060;38.948;2024-03-02T04:26:01;28.55;;;23.30;;
64832;SDS011;51290;45.060;38.948;2024-03-02T04:28:27;26.23;;;18.15;;
64832;SDS011;51290;45.060;38.948;2024-03-02T04:30:53;33.22;;;23.33;;
64832;SDS011;51290;45.060;38.948;2024-03-02T04:33:19;27.63;;;19.98;;
64832;SDS011;51290;45.060;38.948;2024-03-02T04:35:45;32.90;;;23.45;;
64832;SDS011;51290;45.060;38.948;2024-03-02T04:38:11;24.73;;;17.90;;
64832;SDS011;51290;45.060;38.948;2024-03-02T04:40:37;36.28;;;22.08;;
64832;SDS011;51290;45.060;38.948;2024-03-02T04:43:03;32.35;;;19.17;;
64832;SDS011;51290;45.060;38.948;2024-03-02T04:45:29;28.45;;;18.90;;
64832;SDS011;51290;45.060;38.948;2024-03-02T04:47:58;26.23;;;17.63;;
64832;SDS011;51290;45.060;38.948;2024-03-02T04:50:24;26.40;;;18.00;;
64832;SDS011;51290;45.060;38.948;2024-03-02T04:52:50;29.58;;;19.88;;
64832;SDS011;51290;45.060;38.948;2024-03-02T04:55:16;30.33;;;19.45;;
64832;SDS011;51290;45.060;38.948;2024-03-02T04:57:42;34.67;;;21.77;;
64832;SDS011;51290;45.060;38.948;2024-03-02T05:00:12;38.30;;;24.42;;
64832;SDS011;51290;45.060;38.948;2024-03-02T05:02:39;36.65;;;25.70;;
64832;SDS011;51290;45.060;38.948;2024-03-02T05:05:04;42.00;;;22.85;;
64832;SDS011;51290;45.060;38.948;2024-03-02T05:07:31;38.13;;;21.98;;
64832;SDS011;51290;45.060;38.948;2024-03-02T05:09:56;32.03;;;21.15;;
64832;SDS011;51290;45.060;38.948;2024-03-02T05:12:22;24.42;;;19.10;;
64832;SDS011;51290;45.060;38.948;2024-03-02T05:14:48;30.70;;;22.17;;
64832;SDS011;51290;45.060;38.948;2024-03-02T05:17:15;36.50;;;23.08;;
64832;SDS011;51290;45.060;38.948;2024-03-02T05:19:40;32.35;;;22.60;;
64832;SDS011;51290;45.060;38.948;2024-03-02T05:22:06;34.65;;;24.52;;
64832;SDS011;51290;45.060;38.948;2024-03-02T05:24:32;34.45;;;22.95;;
64832;SDS011;51290;45.060;38.948;2024-03-02T05:26:59;31.00;;;19.10;;
64832;SDS011;51290;45.060;38.948;2024-03-02T05:29:25;32.22;;;20.20;;
64832;SDS011;51290;45.060;38.948;2024-03-02T05:31:51;28.25;;;20.70;;
64832;SDS011;51290;45.060;38.948;2024-03-02T05:34:17;34.70;;;22.88;;
64832;SDS011;51290;45.060;38.948;2024-03-02T05:36:43;30.13;;;19.92;;
64832;SDS011;51290;45.060;38.948;2024-03-02T05:39:09;27.67;;;18.45;;
64832;SDS011;51290;45.060;38.948;2024-03-02T05:41:36;39.10;;;24.80;;
64832;SDS011;51290;45.060;38.948;2024-03-02T05:44:02;29.52;;;21.13;;
64832;SDS011;51290;45.060;38.948;2024-03-02T05:46:28;29.98;;;20.80;;
64832;SDS011;51290;45.060;38.948;2024-03-02T05:48:53;29.77;;;22.35;;
64832;SDS011;51290;45.060;38.948;2024-03-02T05:51:19;30.42;;;20.23;;
64832;SDS011;51290;45.060;38.948;2024-03-02T05:53:46;32.47;;;20.73;;
64832;SDS011;51290;45.060;38.948;2024-03-02T05:56:12;35.53;;;21.63;;
64832;SDS011;51290;45.060;38.948;2024-03-02T05:58:38;40.65;;;23.38;;
64832;SDS011;51290;45.060;38.948;2024-03-02T06:01:33;34.85;;;21.65;;
64832;SDS011;51290;45.060;38.948;2024-03-02T06:03:59;33.70;;;23.33;;
64832;SDS011;51290;45.060;38.948;2024-03-02T06:06:25;31.00;;;22.80;;
64832;SDS011;51290;45.060;38.948;2024-03-02T06:08:52;37.97;;;24.42;;
64832;SDS011;51290;45.060;38.948;2024-03-02T06:11:21;32.60;;;22.98;;
64832;SDS011;51290;45.060;38.948;2024-03-02T06:13:47;28.10;;;21.42;;
64832;SDS011;51290;45.060;38.948;2024-03-02T06:16:13;35.88;;;23.50;;
64832;SDS011;51290;45.060;38.948;2024-03-02T06:18:39;33.35;;;22.85;;
64832;SDS011;51290;45.060;38.948;2024-03-02T06:21:05;32.63;;;22.30;;
64832;SDS011;51290;45.060;38.948;2024-03-02T06:23:31;37.22;;;27.50;;
64832;SDS011;51290;45.060;38.948;2024-03-02T06:25:57;28.55;;;20.80;;
64832;SDS011;51290;45.060;38.948;2024-03-02T06:28:23;32.42;;;22.77;;
64832;SDS011;51290;45.060;38.948;2024-03-02T06:30:49;37.05;;;23.85;;
64832;SDS011;51290;45.060;38.948;2024-03-02T06:33:15;31.63;;;21.58;;
64832;SDS011;51290;45.060;38.948;2024-03-02T06:35:41;30.15;;;22.10;;
64832;SDS011;51290;45.060;38.948;2024-03-02T06:38:07;35.45;;;25.35;;
64832;SDS011;51290;45.060;38.948;2024-03-02T06:40:33;33.33;;;22.15;;
64832;SDS011;51290;45.060;38.948;2024-03-02T06:42:59;33.40;;;21.88;;
64832;SDS011;51290;45.060;38.948;2024-03-02T06:45:25;27.92;;;20.83;;
64832;SDS011;51290;45.060;38.948;2024-03-02T06:47:51;38.53;;;22.40;;
64832;SDS011;51290;45.060;38.948;2024-03-02T06:50:17;37.25;;;22.45;;
64832;SDS011;51290;45.060;38.948;2024-03-02T06:52:43;34.60;;;22.65;;
64832;SDS011;51290;45.060;38.948;2024-03-02T06:55:09;29.17;;;20.52;;
64832;SDS011;51290;45.060;38.948;2024-03-02T06:57:35;35.20;;;22.38;;
64832;SDS011;51290;45.060;38.948;2024-03-02T07:00:01;35.90;;;24.52;;
64832;SDS011;51290;45.060;38.948;2024-03-02T07:02:30;24.77;;;20.08;;
64832;SDS011;51290;45.060;38.948;2024-03-02T07:04:56;32.75;;;21.08;;
64832;SDS011;51290;45.060;38.948;2024-03-02T07:07:22;29.30;;;21.73;;
64832;SDS011;51290;45.060;38.948;2024-03-02T07:09:48;33.72;;;25.13;;
64832;SDS011;51290;45.060;38.948;2024-03-02T07:12:14;30.15;;;22.13;;
64832;SDS011;51290;45.060;38.948;2024-03-02T07:14:40;29.65;;;22.17;;
64832;SDS011;51290;45.060;38.948;2024-03-02T07:17:24;32.10;;;20.23;;
64832;SDS011;51290;45.060;38.948;2024-03-02T07:19:51;35.90;;;22.60;;
64832;SDS011;51290;45.060;38.948;2024-03-02T07:22:17;25.05;;;17.83;;
64832;SDS011;51290;45.060;38.948;2024-03-02T07:24:44;28.23;;;20.23;;
64832;SDS011;51290;45.060;38.948;2024-03-02T07:27:11;36.97;;;19.15;;
64832;SDS011;51290;45.060;38.948;2024-03-02T07:29:38;34.25;;;21.67;;
64832;SDS011;51290;45.060;38.948;2024-03-02T07:32:05;33.38;;;24.38;;
64832;SDS011;51290;45.060;38.948;2024-03-02T07:34:32;33.17;;;23.30;;
64832;SDS011;51290;45.060;38.948;2024-03-02T07:36:58;29.75;;;19.80;;
64832;SDS011;51290;45.060;38.948;2024-03-02T07:39:24;26.13;;;18.15;;
64832;SDS011;51290;45.060;38.948;2024-03-02T07:41:50;31.73;;;21.20;;
64832;SDS011;51290;45.060;38.948;2024-03-02T07:44:17;36.60;;;21.45;;
64832;SDS011;51290;45.060;38.948;2024-03-02T07:46:44;25.88;;;20.65;;
64832;SDS011;51290;45.060;38.948;2024-03-02T07:49:20;31.65;;;23.63;;
64832;SDS011;51290;45.060;38.948;2024-03-02T07:51:46;37.33;;;22.33;;
64832;SDS011;51290;45.060;38.948;2024-03-02T07:54:12;33.58;;;24.88;;
64832;SDS011;51290;45.060;38.948;2024-03-02T07:56:38;38.90;;;27.48;;
64832;SDS011;51290;45.060;38.948;2024-03-02T07:59:04;40.58;;;23.20;;
64832;SDS011;51290;45.060;38.948;2024-03-02T08:01:30;30.30;;;22.40;;
64832;SDS011;51290;45.060;38.948;2024-03-02T08:03:58;36.22;;;22.20;;
64832;SDS011;51290;45.060;38.948;2024-03-02T08:06:25;32.45;;;22.73;;
64832;SDS011;51290;45.060;38.948;2024-03-02T08:08:59;32.03;;;22.75;;
64832;SDS011;51290;45.060;38.948;2024-03-02T08:11:26;26.23;;;20.67;;
64832;SDS011;51290;45.060;38.948;2024-03-02T08:13:52;32.75;;;21.23;;
64832;SDS011;51290;45.060;38.948;2024-03-02T08:16:20;34.50;;;22.45;;
64832;SDS011;51290;45.060;38.948;2024-03-02T08:18:48;25.80;;;19.23;;
64832;SDS011;51290;45.060;38.948;2024-03-02T08:21:14;36.63;;;23.05;;
64832;SDS011;51290;45.060;38.948;2024-03-02T08:23:40;29.17;;;22.10;;
64832;SDS011;51290;45.060;38.948;2024-03-02T08:26:11;36.10;;;22.25;;
64832;SDS011;51290;45.060;38.948;2024-03-02T08:28:38;32.72;;;22.23;;
64832;SDS011;51290;45.060;38.948;2024-03-02T08:31:07;29.50;;;19.77;;
64832;SDS011;51290;45.060;38.948;2024-03-02T08:33:33;33.78;;;21.58;;
64832;SDS011;51290;45.060;38.948;2024-03-02T08:36:00;28.58;;;21.38;;
64832;SDS011;51290;45.060;38.948;2024-03-02T08:38:27;34.15;;;21.10;;
64832;SDS011;51290;45.060;38.948;2024-03-02T08:40:55;31.13;;;21.77;;
64832;SDS011;51290;45.060;38.948;2024-03-02T08:43:21;39.78;;;23.70;;
64832;SDS011;51290;45.060;38.948;2024-03-02T08:45:49;35.38;;;23.25;;
64832;SDS011;51290;45.060;38.948;2024-03-02T08:48:17;37.67;;;25.33;;
64832;SDS011;51290;45.060;38.948;2024-03-02T08:50:44;28.00;;;20.70;;
64832;SDS011;51290;45.060;38.948;2024-03-02T08:53:17;29.38;;;22.00;;
64832;SDS011;51290;45.060;38.948;2024-03-02T08:55:47;28.33;;;18.08;;
64832;SDS011;51290;45.060;38.948;2024-03-02T08:58:17;28.50;;;19.35;;
64832;SDS011;51290;45.060;38.948;2024-03-02T09:00:55;30.00;;;21.98;;
64832;SDS011;51290;45.060;38.948;2024-03-02T09:03:21;29.33;;;21.27;;
64832;SDS011;51290;45.060;38.948;2024-03-02T09:05:47;37.95;;;27.48;;
64832;SDS011;51290;45.060;38.948;2024-03-02T09:08:13;34.33;;;24.77;;
64832;SDS011;51290;45.060;38.948;2024-03-02T09:10:40;32.92;;;23.48;;
64832;SDS011;51290;45.060;38.948;2024-03-02T09:13:07;25.92;;;21.13;;
64832;SDS011;51290;45.060;38.948;2024-03-02T09:15:33;30.85;;;23.65;;
64832;SDS011;51290;45.060;38.948;2024-03-02T09:18:03;29.80;;;17.73;;
64832;SDS011;51290;45.060;38.948;2024-03-02T09:20:29;36.78;;;20.92;;
64832;SDS011;51290;45.060;38.948;2024-03-02T09:22:55;29.55;;;21.48;;
64832;SDS011;51290;45.060;38.948;2024-03-02T09:25:21;35.83;;;21.05;;
64832;SDS011;51290;45.060;38.948;2024-03-02T09:27:47;25.80;;;19.88;;
64832;SDS011;51290;45.060;38.948;2024-03-02T09:30:13;25.67;;;19.55;;
64832;SDS011;51290;45.060;38.948;2024-03-02T09:32:39;29.17;;;22.17;;
64832;SDS011;51290;45.060;38.948;2024-03-02T09:35:06;24.00;;;19.38;;
64832;SDS011;51290;45.060;38.948;2024-03-02T09:37:32;24.88;;;19.75;;
64832;SDS011;51290;45.060;38.948;2024-03-02T09:39:59;20.70;;;18.00;;
64832;SDS011;51290;45.060;38.948;2024-03-02T09:42:25;27.45;;;20.33;;
64832;SDS011;51290;45.060;38.948;2024-03-02T09:44:51;27.15;;;20.40;;
64832;SDS011;51290;45.060;38.948;2024-03-02T09:47:18;31.77;;;23.00;;
64832;SDS011;51290;45.060;38.948;2024-03-02T09:49:44;25.52;;;19.83;;
64832;SDS011;51290;45.060;38.948;2024-03-02T09:52:10;24.15;;;19.08;;
64832;SDS011;51290;45.060;38.948;2024-03-02T09:54:36;35.53;;;23.75;;
64832;SDS011;51290;45.060;38.948;2024-03-02T09:57:03;28.42;;;21.35;;
64832;SDS011;51290;45.060;38.948;2024-03-02T09:59:29;35.42;;;23.75;;
64832;SDS011;51290;45.060;38.948;2024-03-02T10:02:01;27.85;;;20.45;;
64832;SDS011;51290;45.060;38.948;2024-03-02T10:04:29;32.72;;;20.65;;
64832;SDS011;51290;45.060;38.948;2024-03-02T10:07:14;31.77;;;21.98;;
64832;SDS011;51290;45.060;38.948;2024-03-02T10:09:43;20.30;;;16.88;;
64832;SDS011;51290;45.060;38.948;2024-03-02T10:12:10;29.70;;;21.02;;
64832;SDS011;51290;45.060;38.948;2024-03-02T10:14:38;22.35;;;18.05;;
64832;SDS011;51290;45.060;38.948;2024-03-02T10:17:08;28.63;;;18.52;;
64832;SDS011;51290;45.060;38.948;2024-03-02T10:19:36;28.20;;;20.58;;
64832;SDS011;51290;45.060;38.948;2024-03-02T10:22:03;22.50;;;18.88;;
64832;SDS011;51290;45.060;38.948;2024-03-02T10:24:35;24.52;;;18.17;;
64832;SDS011;51290;45.060;38.948;2024-03-02T10:27:06;22.33;;;17.73;;
64832;SDS011;51290;45.060;38.948;2024-03-02T10:29:40;24.30;;;18.35;;
64832;SDS011;51290;45.060;38.948;2024-03-02T10:32:09;25.67;;;18.15;;
64832;SDS011;51290;45.060;38.948;2024-03-02T10:34:39;26.88;;;18.23;;
64832;SDS011;51290;45.060;38.948;2024-03-02T10:37:07;28.13;;;20.52;;
64832;SDS011;51290;45.060;38.948;2024-03-02T10:39:36;25.80;;;18.33;;
64832;SDS011;51290;45.060;38.948;2024-03-02T10:42:07;23.85;;;18.83;;
64832;SDS011;51290;45.060;38.948;2024-03-02T10:44:34;33.72;;;23.63;;
64832;SDS011;51290;45.060;38.948;2024-03-02T10:47:03;23.35;;;19.63;;
64832;SDS011;51290;45.060;38.948;2024-03-02T10:49:31;26.63;;;19.65;;
64832;SDS011;51290;45.060;38.948;2024-03-02T10:52:00;21.23;;;14.70;;
64832;SDS011;51290;45.060;38.948;2024-03-02T10:54:27;21.15;;;18.08;;
64832;SDS011;51290;45.060;38.948;2024-03-02T10:57:01;27.73;;;18.52;;
64832;SDS011;51290;45.060;38.948;2024-03-02T10:59:34;22.63;;;16.25;;
64832;SDS011;51290;45.060;38.948;2024-03-02T11:02:02;22.63;;;16.83;;
64832;SDS011;51290;45.060;38.948;2024-03-02T11:04:30;22.67;;;17.90;;
64832;SDS011;51290;45.060;38.948;2024-03-02T11:07:00;28.15;;;20.50;;
64832;SDS011;51290;45.060;38.948;2024-03-02T11:09:35;29.33;;;21.30;;
64832;SDS011;51290;45.060;38.948;2024-03-02T11:14:42;28.55;;;20.02;;
64832;SDS011;51290;45.060;38.948;2024-03-02T11:17:11;31.15;;;19.60;;
64832;SDS011;51290;45.060;38.948;2024-03-02T11:19:41;23.45;;;17.77;;
64832;SDS011;51290;45.060;38.948;2024-03-02T11:22:08;31.23;;;20.75;;
64832;SDS011;51290;45.060;38.948;2024-03-02T11:24:35;27.58;;;19.50;;
64832;SDS011;51290;45.060;38.948;2024-03-02T11:27:02;25.02;;;16.65;;
64832;SDS011;51290;45.060;38.948;2024-03-02T11:34:51;30.92;;;20.77;;
64832;SDS011;51290;45.060;38.948;2024-03-02T11:37:18;34.60;;;20.52;;
64832;SDS011;51290;45.060;38.948;2024-03-02T11:39:49;23.65;;;17.77;;
64832;SDS011;51290;45.060;38.948;2024-03-02T11:42:16;18.35;;;15.52;;
64832;SDS011;51290;45.060;38.948;2024-03-02T11:44:44;17.95;;;13.05;;
64832;SDS011;51290;45.060;38.948;2024-03-02T11:47:12;21.98;;;15.15;;
64832;SDS011;51290;45.060;38.948;2024-03-02T11:49:40;19.67;;;14.07;;
64832;SDS011;51290;45.060;38.948;2024-03-02T11:52:14;22.00;;;16.75;;
64832;SDS011;51290;45.060;38.948;2024-03-02T11:54:43;21.52;;;15.38;;
64832;SDS011;51290;45.060;38.948;2024-03-02T11:57:17;12.70;;;9.55;;
64832;SDS011;51290;45.060;38.948;2024-03-02T11:59:44;27.10;;;17.23;;
64832;SDS011;51290;45.060;38.948;2024-03-02T12:02:18;25.58;;;16.05;;
64832;SDS011;51290;45.060;38.948;2024-03-02T12:04:45;25.60;;;15.23;;
64832;SDS011;51290;45.060;38.948;2024-03-02T12:07:19;19.95;;;14.00;;
64832;SDS011;51290;45.060;38.948;2024-03-02T12:09:58;25.00;;;17.98;;
64832;SDS011;51290;45.060;38.948;2024-03-02T12:12:26;20.73;;;16.05;;
64832;SDS011;51290;45.060;38.948;2024-03-02T12:14:53;19.60;;;14.88;;
64832;SDS011;51290;45.060;38.948;2024-03-02T12:17:22;22.05;;;13.88;;
64832;SDS011;51290;45.060;38.948;2024-03-02T12:19:48;24.10;;;13.77;;
64832;SDS011;51290;45.060;38.948;2024-03-02T12:22:14;21.25;;;15.38;;
64832;SDS011;51290;45.060;38.948;2024-03-02T12:24:41;18.50;;;13.00;;
64832;SDS011;51290;45.060;38.948;2024-03-02T12:27:11;18.65;;;13.02;;
64832;SDS011;51290;45.060;38.948;2024-03-02T12:29:37;19.60;;;13.13;;
64832;SDS011;51290;45.060;38.948;2024-03-02T12:32:05;19.73;;;12.98;;
64832;SDS011;51290;45.060;38.948;2024-03-02T12:34:31;15.77;;;10.93;;
64832;SDS011;51290;45.060;38.948;2024-03-02T12:36:57;19.80;;;11.23;;
64832;SDS011;51290;45.060;38.948;2024-03-02T12:39:23;16.70;;;11.27;;
64832;SDS011;51290;45.060;38.948;2024-03-02T12:41:50;17.88;;;11.23;;
64832;SDS011;51290;45.060;38.948;2024-03-02T12:44:19;23.85;;;12.52;;
64832;SDS011;51290;45.060;38.948;2024-03-02T12:46:46;13.23;;;9.57;;
64832;SDS011;51290;45.060;38.948;2024-03-02T12:49:13;17.33;;;11.23;;
64832;SDS011;51290;45.060;38.948;2024-03-02T12:51:43;14.23;;;10.90;;
64832;SDS011;51290;45.060;38.948;2024-03-02T12:54:12;17.70;;;11.02;;
64832;SDS011;51290;45.060;38.948;2024-03-02T12:56:40;16.45;;;9.00;;
64832;SDS011;51290;45.060;38.948;2024-03-02T12:59:21;14.38;;;9.18;;
64832;SDS011;51290;45.060;38.948;2024-03-02T13:01:54;16.35;;;9.68;;
64832;SDS011;51290;45.060;38.948;2024-03-02T13:04:27;23.08;;;10.10;;
64832;SDS011;51290;45.060;38.948;2024-03-02T13:06:54;14.88;;;9.98;;
64832;SDS011;51290;45.060;38.948;2024-03-02T13:09:24;11.57;;;8.65;;
64832;SDS011;51290;45.060;38.948;2024-03-02T13:11:50;23.25;;;10.00;;
64832;SDS011;51290;45.060;38.948;2024-03-02T13:14:16;11.23;;;7.22;;
64832;SDS011;51290;45.060;38.948;2024-03-02T13:16:42;10.95;;;6.95;;
64832;SDS011;51290;45.060;38.948;2024-03-02T13:19:13;13.18;;;8.20;;
64832;SDS011;51290;45.060;38.948;2024-03-02T13:21:39;20.58;;;10.13;;
64832;SDS011;51290;45.060;38.948;2024-03-02T13:24:05;13.95;;;10.23;;
64832;SDS011;51290;45.060;38.948;2024-03-02T13:26:32;11.48;;;8.95;;
64832;SDS011;51290;45.060;38.948;2024-03-02T13:28:58;11.77;;;8.80;;
64832;SDS011;51290;45.060;38.948;2024-03-02T13:31:24;12.75;;;10.48;;
64832;SDS011;51290;45.060;38.948;2024-03-02T13:33:50;11.68;;;8.77;;
64832;SDS011;51290;45.060;38.948;2024-03-02T13:36:16;14.80;;;9.07;;
64832;SDS011;51290;45.060;38.948;2024-03-02T13:38:42;14.20;;;9.80;;
64832;SDS011;51290;45.060;38.948;2024-03-02T13:41:08;16.67;;;9.55;;
64832;SDS011;51290;45.060;38.948;2024-03-02T13:43:34;11.07;;;9.10;;
64832;SDS011;51290;45.060;38.948;2024-03-02T13:46:03;10.02;;;8.02;;
64832;SDS011;51290;45.060;38.948;2024-03-02T13:48:29;12.80;;;6.57;;
64832;SDS011;51290;45.060;38.948;2024-03-02T13:50:57;16.58;;;10.25;;
64832;SDS011;51290;45.060;38.948;2024-03-02T13:53:23;14.07;;;7.40;;
64832;SDS011;51290;45.060;38.948;2024-03-02T13:55:49;16.13;;;8.05;;
64832;SDS011;51290;45.060;38.948;2024-03-02T13:58:15;9.77;;;7.45;;
64832;SDS011;51290;45.060;38.948;2024-03-02T14:00:41;11.85;;;7.45;;
64832;SDS011;51290;45.060;38.948;2024-03-02T14:03:07;8.73;;;5.85;;
64832;SDS011;51290;45.060;38.948;2024-03-02T14:05:33;14.93;;;8.57;;
64832;SDS011;51290;45.060;38.948;2024-03-02T14:07:59;10.90;;;7.10;;
64832;SDS011;51290;45.060;38.948;2024-03-02T14:10:29;13.23;;;7.15;;
64832;SDS011;51290;45.060;38.948;2024-03-02T14:12:55;9.63;;;7.20;;
64832;SDS011;51290;45.060;38.948;2024-03-02T14:15:21;17.35;;;8.77;;
64832;SDS011;51290;45.060;38.948;2024-03-02T14:17:48;8.80;;;6.60;;
64832;SDS011;51290;45.060;38.948;2024-03-02T14:20:15;18.08;;;10.18;;
64832;SDS011;51290;45.060;38.948;2024-03-02T14:22:49;24.85;;;9.55;;
64832;SDS011;51290;45.060;38.948;2024-03-02T14:25:15;17.25;;;9.50;;